Appleby, South Dakota
Current Conditions -  °F | °C
As of 6:02 PM on Monday 22 Dec 2014 (Local Time) from KATY Reporting Station
Haze Haze  
Wind Chill: 35°   Ceiling: 300
Heat Index: 35°   Visibility: 1.2mi
Dew Point: 34°   Wind: 0mph
Humidity: 96%   Direction: NA
Pressure: 29.45"   Gusts: NA
Location:  44.9156°N, 97.1699°W
Report Text: KATY 230002Z AUTO 00000KT 1 1/4SM BR OVC003 02/01 A2945 RMK AO2 T00170011
Loading
Personal Weather Stations






























Interactive Weather Map New forecast layout! Learn more

10-Day Weather Forecast

Advertisements
Track Severe Weather on mobile